Time;durP1;ratioP1;P1;durP2;ratioP2;P2;SDS_P1;SDS_P2;PMS_P1;PMS_P2;Temp;Humidity;BMP_temperature;BMP_pressure;BME280_temperature;BME280_humidity;BME280_pressure;Samples;Min_cycle;Max_cycle;Signal;HPM_P1;HPM_P2
2022/03/03 00:00:46;;;;;;;22.10;14.52;;;;;;;2.46;54.65;101958.63;5014244;28;20034;-59
2022/03/03 00:03:11;;;;;;;17.98;14.25;;;;;;;2.43;55.27;101964.78;4996877;28;20045;-59
2022/03/03 00:05:37;;;;;;;22.40;14.23;;;;;;;2.39;54.62;101950.91;5014153;28;20403;-59
2022/03/03 00:08:03;;;;;;;20.08;14.43;;;;;;;2.40;55.83;101951.78;5013946;28;20058;-59
2022/03/03 00:10:29;;;;;;;21.63;14.85;;;;;;;2.36;55.82;101948.34;5013943;28;20570;-60
2022/03/03 00:12:54;;;;;;;21.55;14.68;;;;;;;2.34;55.30;101951.91;5014078;28;20135;-60
2022/03/03 00:15:20;;;;;;;25.55;15.15;;;;;;;2.32;55.52;101951.09;5014085;28;20172;-59
2022/03/03 00:17:45;;;;;;;21.00;15.18;;;;;;;2.28;55.34;101945.06;5013998;28;20495;-59
2022/03/03 00:20:11;;;;;;;21.98;16.20;;;;;;;2.25;55.83;101942.53;5014207;28;20046;-59
2022/03/03 00:22:36;;;;;;;26.60;18.33;;;;;;;2.21;55.96;101947.00;5014297;28;20046;-59
2022/03/03 00:25:02;;;;;;;21.95;15.38;;;;;;;2.18;56.03;101947.06;5013672;28;20396;-58
2022/03/03 00:27:27;;;;;;;20.73;15.07;;;;;;;2.17;56.99;101944.47;5013702;28;20133;-59
2022/03/03 00:29:52;;;;;;;20.10;14.57;;;;;;;2.13;56.35;101941.06;5013369;28;20392;-59
2022/03/03 00:32:18;;;;;;;23.05;15.80;;;;;;;2.12;56.57;101943.72;5014033;28;20044;-59
2022/03/03 00:34:43;;;;;;;23.00;15.88;;;;;;;2.08;56.44;101937.66;5013966;28;20158;-59
2022/03/03 00:37:08;;;;;;;20.85;15.25;;;;;;;2.06;56.64;101943.84;5014172;28;20046;-59
2022/03/03 00:39:34;;;;;;;22.95;15.73;;;;;;;2.03;56.95;101944.78;4995984;28;20448;-59
2022/03/03 00:41:59;;;;;;;23.02;15.63;;;;;;;1.98;56.78;101950.16;5013650;28;20070;-59
2022/03/03 00:44:24;;;;;;;21.67;15.57;;;;;;;1.97;56.99;101943.16;5013970;28;20057;-59
2022/03/03 00:46:50;;;;;;;22.05;15.68;;;;;;;1.93;57.52;101940.66;5013083;28;20042;-59
2022/03/03 00:49:15;;;;;;;23.40;16.50;;;;;;;1.90;57.81;101941.59;5013820;28;20038;-59
2022/03/03 00:51:40;;;;;;;24.80;15.38;;;;;;;1.87;57.75;101946.91;5013634;28;20065;-59
2022/03/03 00:54:05;;;;;;;23.08;16.08;;;;;;;1.84;57.39;101937.34;5013320;28;20064;-60
2022/03/03 00:56:31;;;;;;;28.73;16.63;;;;;;;1.82;57.35;101940.91;5013511;28;20466;-60
2022/03/03 00:58:56;;;;;;;21.25;15.48;;;;;;;1.79;57.64;101933.97;5013449;28;20046;-60
2022/03/03 01:01:21;;;;;;;21.75;15.15;;;;;;;1.78;57.87;101934.00;5013429;28;20022;-60
2022/03/03 01:03:46;;;;;;;21.75;15.23;;;;;;;1.75;58.29;101928.81;5013137;28;20046;-61
2022/03/03 01:06:12;;;;;;;24.60;16.58;;;;;;;1.73;57.95;101928.84;5013393;28;20088;-60
2022/03/03 01:08:37;;;;;;;22.73;16.02;;;;;;;1.72;58.67;101923.69;5013295;28;20037;-60
2022/03/03 01:11:05;;;;;;;23.90;15.77;;;;;;;1.69;58.68;101936.84;5013220;28;20049;-60
2022/03/03 01:13:30;;;;;;;23.30;16.55;;;;;;;1.64;58.52;101940.41;5012921;28;20132;-60
2022/03/03 01:15:56;;;;;;;25.00;15.70;;;;;;;1.63;58.64;101937.81;5013410;28;20160;-61
2022/03/03 01:18:21;;;;;;;21.75;15.88;;;;;;;1.57;58.86;101938.81;4995483;28;20034;-61
2022/03/03 01:20:47;;;;;;;22.17;15.43;;;;;;;1.54;59.01;101933.63;5012883;28;20044;-61
2022/03/03 01:23:12;;;;;;;21.92;15.73;;;;;;;1.47;59.12;101927.66;5012543;28;20514;-61
2022/03/03 01:25:38;;;;;;;23.95;16.45;;;;;;;1.44;59.79;101925.13;5013220;28;20041;-61
2022/03/03 01:28:03;;;;;;;23.73;16.83;;;;;;;1.43;59.95;101928.66;5012582;28;20049;-61
2022/03/03 01:30:29;;;;;;;21.73;15.98;;;;;;;1.39;59.66;101928.72;4993809;28;20066;-60
2022/03/03 01:32:54;;;;;;;23.00;17.35;;;;;;;1.35;59.96;101930.56;5003361;28;20042;-61
2022/03/03 01:35:20;;;;;;;20.10;15.25;;;;;;;1.32;60.66;101927.16;5013073;28;20077;-61
2022/03/03 01:37:45;;;;;;;19.33;15.73;;;;;;;1.29;60.26;101923.69;5012591;28;20058;-61
2022/03/03 01:40:11;;;;;;;23.92;16.67;;;;;;;1.25;60.17;101922.03;5012950;28;20033;-60
2022/03/03 01:42:36;;;;;;;21.77;16.30;;;;;;;1.23;60.17;101913.34;5012911;28;20034;-59
2022/03/03 01:45:03;;;;;;;23.52;16.20;;;;;;;1.23;60.71;101913.34;5012779;28;20108;-59
2022/03/03 01:47:28;;;;;;;20.77;15.70;;;;;;;1.21;60.84;101902.03;5012122;28;20538;-59
2022/03/03 01:49:55;;;;;;;23.15;15.15;;;;;;;1.18;60.21;101896.00;5012984;28;20034;-59
2022/03/03 01:52:21;;;;;;;26.23;16.35;;;;;;;1.16;60.48;101905.66;5012387;28;20125;-59
2022/03/03 01:54:47;;;;;;;22.48;16.35;;;;;;;1.14;60.84;101903.06;5012726;28;20191;-59
2022/03/03 01:57:17;;;;;;;20.85;15.68;;;;;;;1.10;60.64;101897.03;5012528;28;20042;-59
2022/03/03 01:59:42;;;;;;;;;;;;;;;1.18;59.05;101902.09;5013471;28;20049;-59
2022/03/03 02:02:10;;;;;;;20.45;14.98;;;;;;;1.10;60.79;101894.41;5012511;28;19909;-59
2022/03/03 02:04:38;;;;;;;20.52;15.13;;;;;;;1.08;60.63;101892.72;5012724;28;20046;-59
2022/03/03 02:07:04;;;;;;;28.52;16.30;;;;;;;1.04;61.19;101886.69;5012349;28;20034;-60
2022/03/03 02:09:29;;;;;;;20.98;15.60;;;;;;;1.04;60.90;101891.06;4995070;28;20566;-60
2022/03/03 02:11:54;;;;;;;22.63;16.02;;;;;;;0.99;60.66;101879.84;5012555;28;20095;-59
2022/03/03 02:14:20;;;;;;;25.13;16.05;;;;;;;0.97;61.04;101877.25;5011852;28;20038;-60
2022/03/03 02:16:45;;;;;;;23.10;16.00;;;;;;;0.97;61.33;101879.84;5012585;28;20046;-59
2022/03/03 02:19:19;;;;;;;21.60;16.20;;;;;;;0.96;61.67;101880.75;5012143;28;20050;-59
2022/03/03 02:21:50;;;;;;;21.85;15.88;;;;;;;0.95;62.04;101870.31;5012216;28;20054;-60
2022/03/03 02:24:17;;;;;;;23.25;16.05;;;;;;;0.92;61.99;101866.88;5012441;28;20042;-60
2022/03/03 02:26:43;;;;;;;23.90;16.35;;;;;;;0.88;61.65;101859.97;4994947;28;20085;-59
2022/03/03 02:29:08;;;;;;;26.98;16.23;;;;;;;0.88;61.58;101866.94;5012497;28;20496;-60
2022/03/03 02:31:34;;;;;;;24.65;16.70;;;;;;;0.86;62.28;101860.88;5012235;28;20100;-60
2022/03/03 02:34:00;;;;;;;22.20;15.70;;;;;;;0.84;62.34;101863.53;5012876;28;20088;-59
2022/03/03 02:36:27;;;;;;;21.17;15.50;;;;;;;0.82;62.39;101864.47;5015777;28;20377;-60
2022/03/03 02:38:55;;;;;;;21.17;16.05;;;;;;;0.81;61.92;101863.59;5015430;28;20403;-60
2022/03/03 02:41:21;;;;;;;24.00;16.20;;;;;;;0.78;62.06;101861.03;5015716;28;20069;-60
2022/03/03 02:43:46;;;;;;;21.00;16.75;;;;;;;0.76;62.75;101870.66;5015816;28;20042;-61
2022/03/03 02:46:12;;;;;;;26.02;17.08;;;;;;;0.73;62.82;101873.34;5015294;28;20137;-61
2022/03/03 02:48:37;;;;;;;21.15;16.17;;;;;;;0.71;63.33;101875.13;5015569;28;20115;-60
2022/03/03 02:51:03;;;;;;;22.02;16.30;;;;;;;0.66;63.70;101875.19;5015787;28;20048;-61
2022/03/03 02:53:29;;;;;;;23.08;16.63;;;;;;;0.64;63.59;101865.69;5015817;28;20041;-61
2022/03/03 02:55:54;;;;;;;24.05;16.25;;;;;;;0.62;63.86;101862.25;5015262;28;20177;-61
2022/03/03 02:58:20;;;;;;;22.17;16.10;;;;;;;0.60;63.90;101858.78;5015555;28;20427;-61
2022/03/03 03:00:47;;;;;;;25.52;17.10;;;;;;;0.57;64.28;101859.69;5015666;28;20372;-61
2022/03/03 03:03:13;;;;;;;24.75;16.80;;;;;;;0.54;63.64;101863.22;5015619;28;20053;-61
2022/03/03 03:05:39;;;;;;;23.75;17.08;;;;;;;0.50;64.38;101863.31;5015265;28;20038;-61
2022/03/03 03:08:04;;;;;;;23.92;16.60;;;;;;;0.48;64.73;101858.13;5015352;28;20034;-61
2022/03/03 03:10:30;;;;;;;25.25;17.38;;;;;;;0.46;64.23;101853.81;5015043;28;20038;-61
2022/03/03 03:12:56;;;;;;;24.52;17.85;;;;;;;0.42;64.38;101860.84;5015256;28;20113;-61
2022/03/03 03:15:22;;;;;;;25.35;17.67;;;;;;;0.38;64.81;101860.91;5015229;28;20034;-60
2022/03/03 03:17:48;;;;;;;23.17;16.85;;;;;;;0.36;64.76;101866.16;5015433;28;20045;-61
2022/03/03 03:20:13;;;;;;;23.30;16.77;;;;;;;0.36;65.25;101853.09;5014867;28;20042;-61
2022/03/03 03:22:38;;;;;;;24.23;17.48;;;;;;;0.32;64.79;101854.91;5015192;28;20104;-61
2022/03/03 03:27:41;;;;;;;23.42;16.65;;;;;;;0.21;64.76;101842.94;4674806;23;20057;-60
2022/03/03 03:30:10;;;;;;;24.98;17.27;;;;;;;0.19;64.99;101848.19;5055348;28;20075;-59
2022/03/03 03:32:36;;;;;;;23.60;17.17;;;;;;;0.15;64.71;101847.38;5055402;28;20063;-59
2022/03/03 03:35:02;;;;;;;23.08;17.00;;;;;;;0.11;65.41;101847.44;5054235;28;20033;-58
2022/03/03 03:37:27;;;;;;;26.83;17.38;;;;;;;0.08;65.24;101843.13;5055176;28;20048;-59
2022/03/03 03:39:53;;;;;;;25.40;17.20;;;;;;;0.06;65.04;101841.44;5055105;28;20036;-59
2022/03/03 03:42:18;;;;;;;22.95;16.67;;;;;;;0.06;65.07;101847.53;5055264;28;20033;-59
2022/03/03 03:44:44;;;;;;;21.02;16.17;;;;;;;0.03;65.03;101839.72;5054313;28;20048;-59
2022/03/03 03:47:10;;;;;;;26.15;15.98;;;;;;;0.02;64.95;101839.75;5054447;28;20036;-59
2022/03/03 03:49:36;;;;;;;25.67;17.48;;;;;;;0.02;65.37;101834.53;5055023;28;20045;-58
2022/03/03 03:52:01;;;;;;;27.15;16.67;;;;;;;0.01;65.35;101831.06;5055033;28;20532;-59
2022/03/03 03:54:27;;;;;;;27.13;17.92;;;;;;;0.02;65.67;101837.13;5054110;28;20067;-59
2022/03/03 03:56:53;;;;;;;23.65;16.60;;;;;;;0.01;65.64;101823.22;5054842;28;20044;-59
2022/03/03 03:59:19;;;;;;;25.20;17.52;;;;;;;0.00;65.18;101821.53;5054064;28;20037;-58
2022/03/03 04:01:44;;;;;;;25.70;17.42;;;;;;;-0.04;65.46;101831.13;5054768;28;20040;-59
2022/03/03 04:04:09;;;;;;;23.58;17.05;;;;;;;-0.02;65.79;101823.28;5054610;28;20043;-59
2022/03/03 04:06:36;;;;;;;25.52;16.63;;;;;;;-0.04;66.30;101828.53;5054946;28;20065;-59
2022/03/03 04:09:02;;;;;;;25.65;18.05;;;;;;;-0.03;65.76;101837.25;5047557;28;20037;-59
2022/03/03 04:11:27;;;;;;;24.52;17.17;;;;;;;-0.07;65.43;101833.78;5034628;28;20395;-59
2022/03/03 04:13:53;;;;;;;24.00;16.35;;;;;;;-0.07;65.97;101831.19;5048406;28;20072;-59
2022/03/03 04:16:18;;;;;;;22.27;16.15;;;;;;;-0.08;66.11;101833.84;5036642;28;20045;-59
2022/03/03 04:18:43;;;;;;;25.98;17.85;;;;;;;-0.11;66.38;101824.28;5054330;28;20033;-59
2022/03/03 04:21:08;;;;;;;22.35;17.20;;;;;;;-0.13;66.51;101817.34;5053512;28;20514;-60
2022/03/03 04:23:34;;;;;;;25.38;17.73;;;;;;;-0.13;66.16;101817.34;5054281;28;20059;-59
2022/03/03 04:25:59;;;;;;;23.90;16.67;;;;;;;-0.14;66.35;101816.50;5054259;28;20048;-59
2022/03/03 04:28:24;;;;;;;24.23;17.00;;;;;;;-0.13;66.24;101814.75;5054411;28;20044;-59
2022/03/03 04:30:50;;;;;;;24.90;16.70;;;;;;;-0.15;65.97;101806.97;5053639;28;20131;-59
2022/03/03 04:33:15;;;;;;;26.85;17.33;;;;;;;-0.13;66.11;101805.19;5053916;28;20478;-60
2022/03/03 04:35:41;;;;;;;25.27;17.25;;;;;;;-0.14;66.12;101808.69;5053586;28;20501;-60
2022/03/03 04:38:06;;;;;;;23.80;17.08;;;;;;;-0.15;66.24;101801.75;5054013;28;20078;-60
2022/03/03 04:40:32;;;;;;;26.25;16.85;;;;;;;-0.15;66.21;101803.47;5053971;28;20075;-59
2022/03/03 04:42:57;;;;;;;25.25;17.17;;;;;;;-0.15;66.27;101798.25;5053301;28;20054;-59
2022/03/03 04:45:23;;;;;;;26.20;18.08;;;;;;;-0.16;66.29;101804.38;5053938;28;20072;-59
2022/03/03 04:47:48;;;;;;;26.50;16.88;;;;;;;-0.16;66.10;101793.94;5053336;28;20036;-60
2022/03/03 04:50:14;;;;;;;25.15;16.88;;;;;;;-0.16;66.41;101793.94;5053788;28;20041;-59
2022/03/03 04:52:39;;;;;;;28.38;17.15;;;;;;;-0.16;66.25;101788.72;5054077;28;20045;-59
2022/03/03 04:55:05;;;;;;;22.42;16.20;;;;;;;-0.19;65.85;101790.47;5053285;28;20055;-59
2022/03/03 04:57:31;;;;;;;25.48;16.33;;;;;;;-0.21;65.79;101787.03;5052865;28;20037;-59
2022/03/03 04:59:56;;;;;;;25.83;17.27;;;;;;;-0.21;65.94;101787.03;5053055;28;20486;-60
2022/03/03 05:02:21;;;;;;;24.30;16.38;;;;;;;-0.23;66.04;101787.97;5053672;28;20072;-60
2022/03/03 05:04:47;;;;;;;27.73;16.55;;;;;;;-0.26;66.10;101788.84;5053324;28;20033;-60
2022/03/03 05:07:12;;;;;;;26.55;16.83;;;;;;;-0.26;65.61;101799.28;5053053;28;20049;-59
2022/03/03 05:09:37;;;;;;;23.10;16.98;;;;;;;-0.27;66.40;101796.72;5053484;28;20485;-60
2022/03/03 05:12:03;;;;;;;24.35;17.15;;;;;;;-0.28;66.27;101795.84;5053710;28;20033;-60
2022/03/03 05:14:28;;;;;;;23.63;16.95;;;;;;;-0.31;66.12;101797.66;5042496;28;20469;-60
2022/03/03 05:16:54;;;;;;;25.27;17.17;;;;;;;-0.32;65.95;101804.59;5033632;28;20030;-60
2022/03/03 05:19:19;;;;;;;24.38;17.10;;;;;;;-0.32;66.63;101806.38;5033390;28;20124;-59
2022/03/03 05:21:44;;;;;;;23.95;16.80;;;;;;;-0.32;66.64;101803.75;5033432;28;20034;-60
2022/03/03 05:24:09;;;;;;;24.77;16.60;;;;;;;-0.37;66.61;101809.03;5033727;28;20050;-60
2022/03/03 05:26:35;;;;;;;23.75;17.15;;;;;;;-0.38;66.59;101802.97;5033382;28;20426;-60
2022/03/03 05:29:00;;;;;;;25.63;16.52;;;;;;;-0.40;66.69;101802.13;5033388;28;20061;-60
2022/03/03 05:31:25;;;;;;;23.35;16.75;;;;;;;-0.42;67.21;101803.03;5033327;28;20480;-59
2022/03/03 05:33:51;;;;;;;23.05;17.00;;;;;;;-0.44;66.99;101800.44;5048258;28;20041;-59
2022/03/03 05:36:17;;;;;;;20.98;17.08;;;;;;;-0.45;67.31;101810.91;5035298;28;20082;-60
2022/03/03 05:38:42;;;;;;;27.00;17.02;;;;;;;-0.47;67.50;101803.09;5053072;28;20045;-60
2022/03/03 05:41:07;;;;;;;24.45;16.73;;;;;;;-0.51;67.66;101804.03;5037152;28;20030;-60
2022/03/03 05:43:34;;;;;;;23.70;16.80;;;;;;;-0.53;67.89;101804.94;5033102;28;20109;-61
2022/03/03 05:45:59;;;;;;;25.73;16.83;;;;;;;-0.58;68.02;101811.09;5035459;28;20095;-60
2022/03/03 05:48:26;;;;;;;25.90;17.48;;;;;;;-0.58;67.92;101810.25;5053108;28;20425;-59
2022/03/03 05:50:51;;;;;;;23.63;17.55;;;;;;;-0.60;67.92;101812.88;5052264;28;20120;-60
2022/03/03 05:53:16;;;;;;;24.70;17.52;;;;;;;-0.64;68.51;101813.78;5052839;28;20095;-60
2022/03/03 05:55:50;;;;;;;26.13;17.83;;;;;;;-0.64;68.40;101810.31;5052607;28;20060;-59
2022/03/03 05:58:17;;;;;;;23.88;17.77;;;;;;;-0.67;68.02;101812.97;5052703;28;20103;-60
2022/03/03 06:00:44;;;;;;;27.92;17.40;;;;;;;-0.73;68.44;101798.28;5052596;28;20037;-60
2022/03/03 06:03:13;;;;;;;26.55;17.45;;;;;;;-0.74;68.23;101806.97;5052779;28;20033;-60
2022/03/03 06:05:41;;;;;;;27.58;18.40;;;;;;;-0.78;68.08;101806.16;5034619;28;20049;-60
2022/03/03 06:08:09;;;;;;;28.92;17.98;;;;;;;-0.78;68.39;101805.31;5052422;28;20037;-60
2022/03/03 06:10:40;;;;;;;30.23;18.05;;;;;;;-0.79;68.27;101798.34;5055941;28;20041;-60
2022/03/03 06:13:23;;;;;;;25.95;17.30;;;;;;;-0.79;67.89;101794.00;5056257;28;20418;-60
2022/03/03 06:15:50;;;;;;;30.83;18.73;;;;;;;-0.82;68.56;101796.63;5056250;28;20163;-60
2022/03/03 06:18:19;;;;;;;28.48;17.05;;;;;;;-0.80;68.35;101796.63;5056481;28;20127;-60
2022/03/03 06:20:45;;;;;;;28.77;19.20;;;;;;;-0.81;68.49;101793.16;5056646;28;20033;-59
2022/03/03 06:23:11;;;;;;;28.45;18.77;;;;;;;-0.82;68.22;101795.78;5056903;28;20120;-60
2022/03/03 06:25:37;;;;;;;24.17;16.55;;;;;;;-0.83;68.21;101792.31;5056006;28;20124;-60
2022/03/03 06:28:02;;;;;;;29.38;16.67;;;;;;;-0.84;68.57;101790.59;5056562;28;20037;-60
2022/03/03 06:30:29;;;;;;;24.77;16.35;;;;;;;-0.83;68.41;101794.94;5056448;28;20095;-60
2022/03/03 06:32:54;;;;;;;24.70;15.93;;;;;;;-0.84;68.08;101801.03;5056535;28;20037;-61
2022/03/03 06:35:19;;;;;;;24.60;16.80;;;;;;;-0.83;68.41;101804.53;5056417;28;20385;-60
2022/03/03 06:37:44;;;;;;;25.33;16.50;;;;;;;-0.83;68.20;101807.97;5043112;28;20048;-61
2022/03/03 06:40:10;;;;;;;25.50;17.15;;;;;;;-0.84;68.19;101808.00;5041766;28;20041;-61
2022/03/03 06:42:35;;;;;;;27.23;17.52;;;;;;;-0.85;68.51;101807.13;5055943;28;20052;-61
2022/03/03 06:45:01;;;;;;;24.98;16.63;;;;;;;-0.85;68.41;101807.13;5037473;28;20045;-61
2022/03/03 06:47:26;;;;;;;26.83;18.00;;;;;;;-0.85;68.95;101806.25;5055965;28;20037;-60
2022/03/03 06:49:52;;;;;;;26.40;17.25;;;;;;;-0.86;68.43;101808.00;5053767;28;20485;-60
2022/03/03 06:52:17;;;;;;;23.10;16.77;;;;;;;-0.87;68.44;101814.09;5036016;28;20603;-60
2022/03/03 06:54:44;;;;;;;27.25;17.73;;;;;;;-0.88;68.23;101820.22;5035558;28;20037;-60
2022/03/03 06:57:11;;;;;;;21.98;16.67;;;;;;;-0.89;68.52;101817.63;5041315;28;20041;-60
2022/03/03 06:59:37;;;;;;;25.15;16.95;;;;;;;-0.91;68.45;101814.19;5055922;28;20041;-60
2022/03/03 07:02:03;;;;;;;23.17;16.95;;;;;;;-0.88;68.54;101824.56;5055434;28;20033;-61
2022/03/03 07:04:29;;;;;;;25.08;17.20;;;;;;;-0.87;68.25;101826.28;5055265;28;20040;-61
2022/03/03 07:06:55;;;;;;;23.13;16.02;;;;;;;-0.86;68.66;101831.50;5054717;28;20733;-61
2022/03/03 07:09:21;;;;;;;24.45;16.40;;;;;;;-0.87;68.72;101827.13;5051079;28;20032;-61
2022/03/03 07:11:48;;;;;;;23.55;16.20;;;;;;;-0.86;68.13;101836.69;5055602;28;20025;-61
2022/03/03 07:14:14;;;;;;;23.73;16.75;;;;;;;-0.84;68.49;101844.50;5053578;28;20120;-60
2022/03/03 07:16:41;;;;;;;27.88;18.00;;;;;;;-0.85;68.39;101840.16;5053175;28;20175;-61
2022/03/03 07:19:14;;;;;;;24.30;16.55;;;;;;;-0.84;68.58;101834.06;5053783;28;20037;-60
2022/03/03 07:21:54;;;;;;;28.63;18.63;;;;;;;-0.79;68.18;101829.66;5051162;28;20452;-61
2022/03/03 07:24:26;;;;;;;25.92;17.80;;;;;;;-0.78;68.22;101831.41;5054713;28;20044;-60
2022/03/03 07:26:57;;;;;;;27.80;17.98;;;;;;;-0.74;68.13;101833.06;5054237;28;20475;-61
2022/03/03 07:29:28;;;;;;;25.02;17.10;;;;;;;-0.70;68.20;101833.88;5051586;28;20064;-61
2022/03/03 07:31:58;;;;;;;27.48;18.45;;;;;;;-0.63;68.54;101839.00;5054414;28;20079;-61
2022/03/03 07:34:29;;;;;;;26.05;17.70;;;;;;;-0.54;68.06;101837.16;5054135;28;20036;-60
2022/03/03 07:36:57;;;;;;;23.88;17.08;;;;;;;-0.51;68.28;101839.72;5054489;28;20112;-60
2022/03/03 07:39:30;;;;;;;25.95;16.83;;;;;;;-0.42;67.35;101848.28;5054626;28;20037;-61
2022/03/03 07:41:57;;;;;;;30.48;20.88;;;;;;;-0.36;67.55;101834.25;5054764;28;20060;-61
2022/03/03 07:44:23;;;;;;;27.35;19.50;;;;;;;-0.28;66.87;101837.63;5053178;28;20471;-61
2022/03/03 07:46:48;;;;;;;27.15;17.70;;;;;;;-0.19;66.70;101834.84;5052652;28;20045;-60
2022/03/03 07:49:14;;;;;;;32.00;19.27;;;;;;;-0.09;65.92;101838.19;5052275;28;20032;-61
2022/03/03 07:51:40;;;;;;;28.50;20.10;;;;;;;0.00;66.14;101834.59;5053175;28;20120;-60
2022/03/03 07:54:05;;;;;;;26.35;17.83;;;;;;;0.08;65.74;101826.59;5054527;28;20368;-60
2022/03/03 07:56:37;;;;;;;22.92;17.20;;;;;;;0.17;65.62;101835.13;5052883;28;20032;-60
2022/03/03 07:59:06;;;;;;;27.40;17.98;;;;;;;0.25;65.46;101831.53;5053088;28;20055;-61
2022/03/03 08:01:34;;;;;;;28.63;18.40;;;;;;;0.37;65.17;101841.78;5052447;28;20060;-61
2022/03/03 08:04:02;;;;;;;25.40;17.27;;;;;;;0.49;64.56;101843.31;5052961;28;20033;-60
2022/03/03 08:06:30;;;;;;;25.07;17.47;;;;;;;0.59;64.03;101837.00;5052162;28;20475;-60
2022/03/03 08:08:58;;;;;;;25.95;16.83;;;;;;;0.73;63.84;101840.22;5052636;28;20041;-61
2022/03/03 08:11:26;;;;;;;27.73;17.35;;;;;;;0.88;63.29;101835.56;5051680;28;20025;-60
2022/03/03 08:13:52;;;;;;;28.63;16.05;;;;;;;1.05;63.61;101840.44;5051908;28;20041;-60
2022/03/03 08:16:18;;;;;;;25.05;17.63;;;;;;;1.21;62.45;101836.59;5052424;28;20065;-60
2022/03/03 08:18:46;;;;;;;23.35;15.40;;;;;;;1.43;61.30;101839.63;5051899;28;20033;-60
2022/03/03 08:21:14;;;;;;;26.92;17.30;;;;;;;1.63;60.95;101833.94;5052089;28;20052;-61
2022/03/03 08:23:40;;;;;;;27.60;17.45;;;;;;;1.89;60.05;101831.59;5052620;28;20391;-60
2022/03/03 08:26:06;;;;;;;22.25;15.15;;;;;;;2.14;59.07;101827.44;5051614;28;20100;-60
2022/03/03 08:28:32;;;;;;;24.05;17.23;;;;;;;2.38;59.44;101830.31;5052239;28;20514;-60
2022/03/03 08:31:02;;;;;;;23.50;16.50;;;;;;;2.61;58.20;101827.09;5052051;28;20031;-60
2022/03/03 08:33:41;;;;;;;21.75;15.93;;;;;;;2.85;57.51;101832.53;5051900;28;20029;-59
2022/03/03 08:36:18;;;;;;;25.67;16.30;;;;;;;3.09;56.96;101831.84;5051957;28;20052;-60
2022/03/03 08:38:50;;;;;;;22.13;15.73;;;;;;;3.32;55.07;101827.69;5052377;28;20414;-61
2022/03/03 08:41:19;;;;;;;20.58;14.65;;;;;;;3.52;55.30;101825.28;5051842;28;20041;-60
2022/03/03 08:43:47;;;;;;;23.38;14.40;;;;;;;3.74;54.44;101827.22;5035709;28;20045;-61
2022/03/03 08:46:19;;;;;;;20.77;15.98;;;;;;;3.99;54.00;101826.44;5053266;28;20029;-60
2022/03/03 08:48:46;;;;;;;20.70;14.80;;;;;;;4.19;53.02;101825.78;5042734;28;20450;-60
2022/03/03 08:51:14;;;;;;;19.70;14.73;;;;;;;4.39;52.92;101832.97;5051736;28;20120;-61
2022/03/03 08:53:39;;;;;;;25.50;14.75;;;;;;;4.60;51.82;101834.84;5049532;28;20029;-60
2022/03/03 08:56:05;;;;;;;21.75;14.82;;;;;;;4.81;51.93;101830.59;5057174;28;20041;-61
2022/03/03 08:58:30;;;;;;;23.35;15.63;;;;;;;5.00;50.33;101825.50;5055850;28;20059;-61
2022/03/03 09:00:55;;;;;;;21.08;14.85;;;;;;;5.22;50.41;101827.31;5054430;28;20443;-60
2022/03/03 09:03:21;;;;;;;21.67;14.65;;;;;;;5.41;51.18;101822.19;5052599;28;20576;-61
2022/03/03 09:05:47;;;;;;;22.75;14.82;;;;;;;5.60;49.05;101827.59;5052861;28;20079;-61
2022/03/03 09:08:13;;;;;;;20.08;14.93;;;;;;;5.79;48.02;101825.06;5048927;28;20033;-61
2022/03/03 09:10:38;;;;;;;22.20;14.27;;;;;;;5.98;47.30;101830.47;5037607;28;20045;-60
2022/03/03 09:13:03;;;;;;;20.73;14.43;;;;;;;6.13;46.93;101829.00;5041360;28;20037;-60
2022/03/03 09:15:33;;;;;;;20.25;13.88;;;;;;;6.25;45.87;101825.81;5049055;28;20076;-61
2022/03/03 09:17:59;;;;;;;19.75;13.82;;;;;;;6.42;46.41;101830.38;5044796;28;20049;-60
2022/03/03 09:20:24;;;;;;;18.10;13.48;;;;;;;6.62;46.78;101820.72;5046076;28;20035;-61
2022/03/03 09:22:50;;;;;;;19.85;12.95;;;;;;;6.82;45.25;101822.47;5052359;28;20029;-60
2022/03/03 09:25:15;;;;;;;17.25;13.70;;;;;;;6.96;44.79;101822.72;5052093;28;20372;-60
2022/03/03 09:27:41;;;;;;;23.30;13.48;;;;;;;7.09;44.17;101808.94;5051529;28;20045;-60
2022/03/03 09:30:08;;;;;;;18.85;13.70;;;;;;;7.22;43.44;101810.06;5051249;28;20033;-60
2022/03/03 09:32:34;;;;;;;20.10;13.93;;;;;;;7.36;43.81;101807.63;5033435;28;20037;-60
2022/03/03 09:35:00;;;;;;;18.30;13.77;;;;;;;7.54;43.09;101815.59;5050486;28;20033;-61
2022/03/03 09:37:25;;;;;;;21.33;13.38;;;;;;;7.76;43.89;101807.47;5050817;28;20174;-60
2022/03/03 09:39:50;;;;;;;20.20;13.52;;;;;;;7.94;42.99;101801.28;5052215;28;20047;-61
2022/03/03 09:42:16;;;;;;;18.83;13.75;;;;;;;8.15;42.46;101801.97;5033015;28;20033;-61
2022/03/03 09:44:43;;;;;;;21.02;14.13;;;;;;;8.33;42.38;101800.19;5036889;28;20052;-61
2022/03/03 09:47:11;;;;;;;21.58;13.75;;;;;;;8.52;41.91;101797.44;5058376;28;20037;-60
2022/03/03 09:49:36;;;;;;;18.50;13.30;;;;;;;8.68;40.46;101792.22;5059055;28;20040;-60
2022/03/03 09:52:10;;;;;;;20.70;13.68;;;;;;;8.89;40.73;101800.81;5058971;28;20399;-61
2022/03/03 09:54:36;;;;;;;18.25;13.98;;;;;;;9.02;39.51;101787.72;5058459;28;20052;-60
2022/03/03 09:57:01;;;;;;;17.85;12.85;;;;;;;9.20;40.69;101791.16;5059052;28;20398;-60
2022/03/03 09:59:26;;;;;;;21.58;13.20;;;;;;;9.39;39.59;101796.28;5058684;28;20082;-61
2022/03/03 10:02:01;;;;;;;22.23;13.13;;;;;;;9.44;39.30;101791.59;5059173;28;20029;-60
2022/03/03 10:04:26;;;;;;;19.05;13.15;;;;;;;9.54;37.70;101793.69;5059011;28;20033;-61
2022/03/03 10:06:51;;;;;;;19.73;13.40;;;;;;;9.61;37.87;101787.13;5057820;28;20041;-61
2022/03/03 10:09:17;;;;;;;19.85;13.32;;;;;;;9.75;37.69;101789.81;5039017;28;20280;-60
2022/03/03 10:11:49;;;;;;;23.27;12.75;;;;;;;9.88;37.32;101789.97;5039188;28;20029;-60
2022/03/03 10:14:38;;;;;;;17.30;13.15;;;;;;;10.03;38.80;101782.06;5021011;28;20037;-60
2022/03/03 10:17:05;;;;;;;17.38;12.50;;;;;;;10.21;38.33;101788.03;5043363;28;20043;-61
2022/03/03 10:19:31;;;;;;;21.17;13.07;;;;;;;10.29;36.78;101791.97;5058934;28;20032;-61
2022/03/03 10:21:56;;;;;;;17.05;12.85;;;;;;;10.50;36.71;101778.34;5058905;28;20109;-61
2022/03/03 10:24:29;;;;;;;18.75;12.60;;;;;;;10.54;36.35;101785.16;5058900;28;20072;-60
2022/03/03 10:26:57;;;;;;;16.05;12.73;;;;;;;10.76;36.21;101783.84;5058480;28;20045;-61
2022/03/03 10:29:23;;;;;;;18.73;13.38;;;;;;;10.79;35.66;101779.22;5058632;28;20028;-61
2022/03/03 10:31:51;;;;;;;17.85;13.50;;;;;;;10.91;34.64;101780.25;5058437;28;20037;-60
2022/03/03 10:34:21;;;;;;;18.48;13.07;;;;;;;10.95;35.01;101772.94;5058716;28;20059;-60
2022/03/03 10:37:00;;;;;;;16.75;12.57;;;;;;;11.02;35.60;101776.91;5058523;28;20033;-60
2022/03/03 10:39:36;;;;;;;16.67;12.93;;;;;;;11.19;34.40;101771.38;5055940;28;20045;-60
2022/03/03 10:42:12;;;;;;;16.75;12.70;;;;;;;11.30;34.92;101763.53;5038700;28;20049;-61
2022/03/03 10:44:37;;;;;;;15.55;12.52;;;;;;;11.48;33.57;101765.94;5038639;28;20052;-61
2022/03/03 10:47:08;;;;;;;14.75;11.45;;;;;;;11.54;33.61;101765.56;5038640;28;20037;-61
2022/03/03 10:49:41;;;;;;;16.10;12.05;;;;;;;11.61;32.90;101764.19;5048388;28;20044;-60
2022/03/03 10:52:17;;;;;;;16.42;11.30;;;;;;;11.75;33.88;101762.41;5058655;28;20087;-60
2022/03/03 10:54:48;;;;;;;15.65;11.82;;;;;;;11.76;32.31;101759.66;5057559;28;20073;-60
2022/03/03 10:57:29;;;;;;;19.67;11.73;;;;;;;11.85;33.69;101753.69;5055596;28;20036;-61
2022/03/03 10:59:59;;;;;;;13.73;11.48;;;;;;;11.95;32.39;101761.09;5055459;28;20047;-61
2022/03/03 11:02:28;;;;;;;16.70;10.65;;;;;;;12.14;31.38;101755.34;5050269;28;20395;-60
2022/03/03 11:04:57;;;;;;;14.32;11.45;;;;;;;12.28;30.79;101757.09;5035529;28;20127;-61
2022/03/03 11:07:23;;;;;;;13.97;10.93;;;;;;;12.34;30.73;101753.97;5035590;28;20075;-61
2022/03/03 11:09:49;;;;;;;14.52;11.18;;;;;;;12.45;31.20;101751.44;5036723;28;20758;-60
2022/03/03 11:12:15;;;;;;;16.17;10.15;;;;;;;12.61;29.75;101753.00;5055234;28;20395;-61
2022/03/03 11:14:42;;;;;;;13.93;10.02;;;;;;;12.56;29.79;101753.34;5054529;28;20412;-60